Time;durP1;ratioP1;P1;durP2;ratioP2;P2;SDS_P1;SDS_P2;PMS_P1;PMS_P2;Temp;Humidity;BMP_temperature;BMP_pressure;BME280_temperature;BME280_humidity;BME280_pressure;Samples;Min_cycle;Max_cycle;Signal;HPM_P1;HPM_P2
2024/03/28 00:00:06;;;;;;;32.40;28.00;;;;;;;;;;5001043;28;20274;-76
2024/03/28 00:02:35;;;;;;;32.97;27.60;;;;;;;;;;5005723;28;20319;-76
2024/03/28 00:05:01;;;;;;;34.17;28.10;;;;;;;;;;4989649;28;20296;-76
2024/03/28 00:07:27;;;;;;;36.13;28.47;;;;;;;;;;4983303;28;20221;-76
2024/03/28 00:09:57;;;;;;;32.47;27.60;;;;;;;;;;5006002;28;20233;-75
2024/03/28 00:12:22;;;;;;;31.93;27.73;;;;;;;;;;4990735;28;20217;-76
2024/03/28 00:14:50;;;;;;;33.47;28.40;;;;;;;;;;4984580;28;20217;-76
2024/03/28 00:17:16;;;;;;;31.90;26.57;;;;;;;;;;4984410;28;20278;-76
2024/03/28 00:19:41;;;;;;;31.47;27.40;;;;;;;;;;4962228;28;20629;-77
2024/03/28 00:22:11;;;;;;;30.50;27.20;;;;;;;;;;4960335;28;20256;-75
2024/03/28 00:24:37;;;;;;;31.77;26.47;;;;;;;;;;4948931;28;20602;-75
2024/03/28 00:27:06;;;;;;;30.37;26.37;;;;;;;;;;4947960;28;20309;-75
2024/03/28 00:29:31;;;;;;;30.60;26.90;;;;;;;;;;4965569;28;20308;-75
2024/03/28 00:31:57;;;;;;;31.83;26.27;;;;;;;;;;4950592;28;20292;-75
2024/03/28 00:34:25;;;;;;;30.33;25.37;;;;;;;;;;4968917;28;20220;-75
2024/03/28 00:36:51;;;;;;;30.73;25.63;;;;;;;;;;4988848;28;20599;-75
2024/03/28 00:39:18;;;;;;;32.87;25.20;;;;;;;;;;4967345;28;20228;-75
2024/03/28 00:41:44;;;;;;;28.30;25.07;;;;;;;;;;5002453;28;20220;-75
2024/03/28 00:44:09;;;;;;;29.00;25.70;;;;;;;;;;5000517;28;20271;-75
2024/03/28 00:46:40;;;;;;;27.63;24.50;;;;;;;;;;4954294;28;20226;-76
2024/03/28 00:49:05;;;;;;;31.67;25.17;;;;;;;;;;4951645;28;20597;-76
2024/03/28 00:51:33;;;;;;;28.40;24.23;;;;;;;;;;4947265;28;20221;-75
2024/03/28 00:54:02;;;;;;;30.03;25.60;;;;;;;;;;4989867;28;20244;-75
2024/03/28 00:56:28;;;;;;;29.97;26.77;;;;;;;;;;4973236;28;20224;-75
2024/03/28 00:58:55;;;;;;;29.47;25.33;;;;;;;;;;4981534;28;20229;-75
2024/03/28 01:01:22;;;;;;;29.40;25.27;;;;;;;;;;4987103;28;20608;-75
2024/03/28 01:03:50;;;;;;;29.03;25.87;;;;;;;;;;4971743;28;20213;-75
2024/03/28 01:06:21;;;;;;;30.43;25.67;;;;;;;;;;4972062;28;20220;-75
2024/03/28 01:08:49;;;;;;;29.07;26.00;;;;;;;;;;4987850;28;20272;-75
2024/03/28 01:11:21;;;;;;;29.03;25.93;;;;;;;;;;4973769;28;20364;-75
2024/03/28 01:13:46;;;;;;;28.57;25.47;;;;;;;;;;4962042;28;20221;-75
2024/03/28 01:16:12;;;;;;;28.43;25.37;;;;;;;;;;4999198;28;20213;-75
2024/03/28 01:18:45;;;;;;;28.07;25.03;;;;;;;;;;4981497;28;20237;-75
2024/03/28 01:21:15;;;;;;;27.87;24.83;;;;;;;;;;4974754;28;20220;-75
2024/03/28 01:23:43;;;;;;;28.50;25.37;;;;;;;;;;4956903;28;20232;-75
2024/03/28 01:26:09;;;;;;;29.37;24.13;;;;;;;;;;4948260;28;20260;-76
2024/03/28 01:28:37;;;;;;;26.77;23.73;;;;;;;;;;4945939;28;20217;-75
2024/03/28 01:31:07;;;;;;;28.07;25.13;;;;;;;;;;4953486;28;20353;-75
2024/03/28 01:33:40;;;;;;;27.97;25.00;;;;;;;;;;4969910;28;20225;-75
2024/03/28 01:36:08;;;;;;;27.10;23.97;;;;;;;;;;4985389;28;20228;-75
2024/03/28 01:38:36;;;;;;;26.97;24.17;;;;;;;;;;5007235;28;20324;-75
2024/03/28 01:41:06;;;;;;;26.33;23.57;;;;;;;;;;4984452;28;20794;-75
2024/03/28 01:43:39;;;;;;;28.47;24.53;;;;;;;;;;4938293;28;20229;-75
2024/03/28 01:46:05;;;;;;;26.10;23.30;;;;;;;;;;4966139;28;20239;-76
2024/03/28 01:48:35;;;;;;;26.40;23.33;;;;;;;;;;4963505;28;20225;-76
2024/03/28 01:51:01;;;;;;;27.13;23.60;;;;;;;;;;4971916;28;20303;-75
2024/03/28 01:53:29;;;;;;;25.60;22.90;;;;;;;;;;4977152;28;20279;-75
2024/03/28 01:55:57;;;;;;;26.03;23.17;;;;;;;;;;4947355;28;20221;-75
2024/03/28 01:58:25;;;;;;;25.67;22.63;;;;;;;;;;4980453;28;20217;-75
2024/03/28 02:00:53;;;;;;;25.57;22.47;;;;;;;;;;4980749;28;20299;-75
2024/03/28 02:03:18;;;;;;;25.00;21.60;;;;;;;;;;4961704;28;20224;-75
2024/03/28 02:05:44;;;;;;;22.50;20.33;;;;;;;;;;4967071;28;20221;-75
2024/03/28 02:08:15;;;;;;;22.87;20.40;;;;;;;;;;4957875;28;20713;-75
2024/03/28 02:10:42;;;;;;;22.47;20.07;;;;;;;;;;4967611;28;20221;-75
2024/03/28 02:13:12;;;;;;;22.77;20.37;;;;;;;;;;4949271;28;20228;-75
2024/03/28 02:15:42;;;;;;;21.57;19.20;;;;;;;;;;4972765;28;20695;-75
2024/03/28 02:18:12;;;;;;;21.10;18.80;;;;;;;;;;4970874;28;20754;-75
2024/03/28 02:20:40;;;;;;;22.50;19.80;;;;;;;;;;4981621;28;20324;-76
2024/03/28 02:23:06;;;;;;;21.47;18.93;;;;;;;;;;4962748;28;20233;-76
2024/03/28 02:25:34;;;;;;;20.30;18.20;;;;;;;;;;4987102;28;20261;-76
2024/03/28 02:27:59;;;;;;;19.63;17.33;;;;;;;;;;4978228;28;20235;-76
2024/03/28 02:30:28;;;;;;;21.43;17.90;;;;;;;;;;4965534;28;20221;-77
2024/03/28 02:32:53;;;;;;;21.13;17.23;;;;;;;;;;4974545;28;20237;-76
2024/03/28 02:35:19;;;;;;;21.10;16.47;;;;;;;;;;4987609;28;20221;-76
2024/03/28 02:37:47;;;;;;;22.53;16.83;;;;;;;;;;4975614;28;20218;-75
2024/03/28 02:40:18;;;;;;;18.57;16.53;;;;;;;;;;4961460;28;20210;-76
2024/03/28 02:42:45;;;;;;;18.43;16.33;;;;;;;;;;4975422;28;20223;-76
2024/03/28 02:45:11;;;;;;;19.23;16.07;;;;;;;;;;4975563;28;20205;-77
2024/03/28 02:47:44;;;;;;;18.17;15.60;;;;;;;;;;4986538;28;20308;-77
2024/03/28 02:50:13;;;;;;;19.60;16.63;;;;;;;;;;5003442;28;20221;-76
2024/03/28 02:52:41;;;;;;;19.83;16.13;;;;;;;;;;4984984;28;20278;-76
2024/03/28 02:55:09;;;;;;;19.43;16.37;;;;;;;;;;4986245;28;20273;-76
2024/03/28 02:57:39;;;;;;;17.90;15.93;;;;;;;;;;4983580;28;20229;-78
2024/03/28 03:00:08;;;;;;;19.60;16.97;;;;;;;;;;5026008;28;20218;-79
2024/03/28 03:02:34;;;;;;;20.20;17.23;;;;;;;;;;5014765;28;20588;-79
2024/03/28 03:05:01;;;;;;;18.77;16.83;;;;;;;;;;4998191;28;20241;-80
2024/03/28 03:07:29;;;;;;;21.23;17.30;;;;;;;;;;5006536;28;20301;-79
2024/03/28 03:09:56;;;;;;;19.10;16.90;;;;;;;;;;5004614;28;20223;-79
2024/03/28 03:12:24;;;;;;;19.43;17.33;;;;;;;;;;5026423;28;20575;-79
2024/03/28 03:14:52;;;;;;;20.93;18.17;;;;;;;;;;5025647;28;20307;-77
2024/03/28 03:17:17;;;;;;;22.07;19.23;;;;;;;;;;5021683;28;20225;-79
2024/03/28 03:19:43;;;;;;;22.90;19.67;;;;;;;;;;5026055;28;20255;-80
2024/03/28 03:22:08;;;;;;;24.50;19.83;;;;;;;;;;5009488;28;20213;-79
2024/03/28 03:24:41;;;;;;;29.50;21.70;;;;;;;;;;5028944;28;20213;-79
2024/03/28 03:27:16;;;;;;;26.80;20.70;;;;;;;;;;4991628;28;20324;-78
2024/03/28 03:35:10;;;;;;;29.13;22.57;;;;;;;;;;4993534;28;20221;-80
2024/03/28 03:37:38;;;;;;;31.67;23.90;;;;;;;;;;5021901;28;20228;-79
2024/03/28 03:40:09;;;;;;;29.50;24.17;;;;;;;;;;4981219;28;20257;-80
2024/03/28 03:42:38;;;;;;;29.93;22.43;;;;;;;;;;5025800;28;20222;-79
2024/03/28 03:45:08;;;;;;;30.27;24.67;;;;;;;;;;5003625;28;20257;-79
2024/03/28 03:47:38;;;;;;;32.43;24.37;;;;;;;;;;5023992;28;20202;-79
2024/03/28 03:50:04;;;;;;;32.13;24.33;;;;;;;;;;5018408;28;20763;-78
2024/03/28 03:52:33;;;;;;;29.47;22.30;;;;;;;;;;4998993;28;20279;-78
2024/03/28 03:54:59;;;;;;;29.63;21.83;;;;;;;;;;5012709;28;20229;-79
2024/03/28 03:57:24;;;;;;;28.20;22.20;;;;;;;;;;5002929;28;20236;-78
2024/03/28 04:03:36;;;;;;;25.73;18.67;;;;;;;;;;5005724;28;20334;-77
2024/03/28 04:06:05;;;;;;;25.80;18.37;;;;;;;;;;4960081;28;20723;-80
2024/03/28 04:08:31;;;;;;;25.83;18.27;;;;;;;;;;4959855;28;20688;-78
2024/03/28 04:13:54;;;;;;;24.20;16.43;;;;;;;;;;5013149;28;20235;-86
2024/03/28 04:16:22;;;;;;;24.37;16.90;;;;;;;;;;4979704;28;20281;-84
2024/03/28 04:18:48;;;;;;;22.37;16.23;;;;;;;;;;4967281;28;20268;-83
2024/03/28 04:21:13;;;;;;;23.40;15.23;;;;;;;;;;4978311;28;20217;-84
2024/03/28 04:23:39;;;;;;;23.40;15.83;;;;;;;;;;4965275;28;20218;-85
2024/03/28 04:26:06;;;;;;;20.80;13.57;;;;;;;;;;4979418;28;20805;-87
2024/03/28 04:28:37;;;;;;;21.63;14.50;;;;;;;;;;4978618;28;20748;-83
2024/03/28 04:31:09;;;;;;;20.77;13.60;;;;;;;;;;4963939;28;20749;-84
2024/03/28 04:33:34;;;;;;;22.17;13.03;;;;;;;;;;4980461;28;20229;-85
2024/03/28 04:36:05;;;;;;;21.00;13.13;;;;;;;;;;4982170;28;20233;-85
2024/03/28 04:38:33;;;;;;;20.27;13.80;;;;;;;;;;4975810;28;20236;-83
2024/03/28 04:40:59;;;;;;;20.30;13.60;;;;;;;;;;4963949;28;20233;-85
2024/03/28 04:43:27;;;;;;;14.77;10.67;;;;;;;;;;4976941;28;20229;-84
2024/03/28 04:45:53;;;;;;;10.50;8.57;;;;;;;;;;4949044;28;20268;-83
2024/03/28 04:48:21;;;;;;;9.67;7.90;;;;;;;;;;4962183;28;20248;-82
2024/03/28 04:50:46;;;;;;;9.90;7.60;;;;;;;;;;4977277;28;20532;-84
2024/03/28 04:53:14;;;;;;;9.63;8.47;;;;;;;;;;4959736;28;20936;-81
2024/03/28 04:55:45;;;;;;;10.70;8.80;;;;;;;;;;4989639;28;20221;-81
2024/03/28 04:58:10;;;;;;;12.07;9.30;;;;;;;;;;4971908;28;20254;-81
2024/03/28 05:00:38;;;;;;;11.10;9.40;;;;;;;;;;4957800;28;20224;-82
2024/03/28 05:03:05;;;;;;;10.87;9.57;;;;;;;;;;4960387;28;20234;-82
2024/03/28 05:05:31;;;;;;;12.50;10.00;;;;;;;;;;4976904;28;20586;-82
2024/03/28 05:07:56;;;;;;;10.30;9.10;;;;;;;;;;4957684;28;20234;-82
2024/03/28 05:10:25;;;;;;;10.80;8.30;;;;;;;;;;4987199;28;20221;-83
2024/03/28 05:12:50;;;;;;;10.73;8.03;;;;;;;;;;4962301;28;20277;-83
2024/03/28 05:15:18;;;;;;;10.00;7.87;;;;;;;;;;4962317;28;20787;-82
2024/03/28 05:17:43;;;;;;;9.30;8.30;;;;;;;;;;4929920;28;20246;-85
2024/03/28 05:20:12;;;;;;;8.10;7.30;;;;;;;;;;4955176;28;20226;-83
2024/03/28 05:22:40;;;;;;;8.63;7.20;;;;;;;;;;4947694;28;20222;-82
2024/03/28 05:25:06;;;;;;;9.43;7.40;;;;;;;;;;4938960;28;20309;-82
2024/03/28 05:27:34;;;;;;;10.07;7.27;;;;;;;;;;4955820;28;20782;-83
2024/03/28 05:30:03;;;;;;;7.73;6.90;;;;;;;;;;4977773;28;20209;-84
2024/03/28 05:32:34;;;;;;;6.77;5.97;;;;;;;;;;4961913;28;20222;-83
2024/03/28 05:34:59;;;;;;;6.80;6.00;;;;;;;;;;4944664;28;20230;-84
2024/03/28 05:37:27;;;;;;;8.10;6.03;;;;;;;;;;4978860;28;20279;-84
2024/03/28 05:39:52;;;;;;;7.43;5.60;;;;;;;;;;4965594;28;20228;-83
2024/03/28 05:42:18;;;;;;;6.57;5.87;;;;;;;;;;4946978;28;20226;-83
2024/03/28 05:44:46;;;;;;;8.97;6.23;;;;;;;;;;4986680;28;20239;-84
2024/03/28 05:47:11;;;;;;;6.80;6.10;;;;;;;;;;4968279;28;20237;-85
2024/03/28 05:49:39;;;;;;;7.50;6.67;;;;;;;;;;4963823;28;20218;-83
2024/03/28 05:52:05;;;;;;;7.87;6.30;;;;;;;;;;4961888;28;20228;-85
2024/03/28 05:54:31;;;;;;;8.27;6.17;;;;;;;;;;4975596;28;20537;-83
2024/03/28 05:56:56;;;;;;;7.47;5.90;;;;;;;;;;4947524;28;20234;-85
2024/03/28 05:59:24;;;;;;;7.73;6.37;;;;;;;;;;4929370;28;20230;-83
2024/03/28 06:01:53;;;;;;;8.17;6.90;;;;;;;;;;4932478;28;20233;-83
2024/03/28 06:04:21;;;;;;;6.77;6.07;;;;;;;;;;4965469;28;20244;-84
2024/03/28 06:06:46;;;;;;;30.47;23.40;;;;;;;;;;4958871;28;20220;-84
2024/03/28 06:09:13;;;;;;;17.93;15.40;;;;;;;;;;4951926;28;20226;-84
2024/03/28 06:11:41;;;;;;;8.50;7.13;;;;;;;;;;4947498;28;20234;-84
2024/03/28 06:14:09;;;;;;;7.90;7.10;;;;;;;;;;4955479;28;20722;-84
2024/03/28 06:16:37;;;;;;;10.03;7.90;;;;;;;;;;4966425;28;20253;-84
2024/03/28 06:19:05;;;;;;;10.00;7.93;;;;;;;;;;4943103;28;20353;-83
2024/03/28 06:21:35;;;;;;;9.80;8.83;;;;;;;;;;4975505;28;20572;-83
2024/03/28 06:24:01;;;;;;;9.40;8.40;;;;;;;;;;4961744;28;20330;-83
2024/03/28 06:26:33;;;;;;;10.03;9.03;;;;;;;;;;4936517;28;21151;-82
2024/03/28 06:28:58;;;;;;;10.70;9.60;;;;;;;;;;4943534;28;20233;-81
2024/03/28 06:31:24;;;;;;;13.00;10.03;;;;;;;;;;4942658;28;20596;-82
2024/03/28 06:33:52;;;;;;;11.27;10.13;;;;;;;;;;4960315;28;20215;-82
2024/03/28 06:36:17;;;;;;;12.53;10.00;;;;;;;;;;4941191;28;20262;-78
2024/03/28 06:38:43;;;;;;;13.27;10.80;;;;;;;;;;4970274;28;20225;-78
2024/03/28 06:41:08;;;;;;;13.30;11.20;;;;;;;;;;4937098;28;20226;-78
2024/03/28 06:43:36;;;;;;;13.03;11.27;;;;;;;;;;4971791;28;20229;-79
2024/03/28 06:46:04;;;;;;;12.90;11.60;;;;;;;;;;4956964;28;20249;-78
2024/03/28 06:48:30;;;;;;;13.03;11.63;;;;;;;;;;4956920;28;20696;-77
2024/03/28 06:50:55;;;;;;;13.00;11.50;;;;;;;;;;4937633;28;20223;-78
2024/03/28 06:53:21;;;;;;;14.23;12.83;;;;;;;;;;4952148;28;20569;-78
2024/03/28 06:55:46;;;;;;;14.20;12.60;;;;;;;;;;4957695;28;20222;-78
2024/03/28 06:58:15;;;;;;;14.27;12.60;;;;;;;;;;4939625;28;20535;-78
2024/03/28 07:00:40;;;;;;;14.13;12.73;;;;;;;;;;4938392;28;20668;-78
2024/03/28 07:03:09;;;;;;;13.97;12.47;;;;;;;;;;4952539;28;20230;-78
2024/03/28 07:05:35;;;;;;;14.20;12.80;;;;;;;;;;4953237;28;20267;-78
2024/03/28 07:08:00;;;;;;;14.27;12.87;;;;;;;;;;4935915;28;20363;-78
2024/03/28 07:10:26;;;;;;;14.90;13.40;;;;;;;;;;4952749;28;20226;-78
2024/03/28 07:12:53;;;;;;;14.33;12.93;;;;;;;;;;4949282;28;20691;-77
2024/03/28 07:15:19;;;;;;;14.20;12.67;;;;;;;;;;4976087;28;20214;-79
2024/03/28 07:17:44;;;;;;;13.50;12.20;;;;;;;;;;4987437;28;20241;-79
2024/03/28 07:20:12;;;;;;;14.83;13.33;;;;;;;;;;4986186;28;20222;-79
2024/03/28 07:22:38;;;;;;;13.13;11.47;;;;;;;;;;4986124;28;20233;-79
2024/03/28 07:25:06;;;;;;;13.00;11.40;;;;;;;;;;4971838;28;20222;-79
2024/03/28 07:27:32;;;;;;;12.30;10.87;;;;;;;;;;4955311;28;20309;-78
2024/03/28 07:30:00;;;;;;;44.47;34.13;;;;;;;;;;4932460;28;20688;-78
2024/03/28 07:32:27;;;;;;;11.50;10.40;;;;;;;;;;4971228;28;20320;-78
2024/03/28 07:34:57;;;;;;;10.50;9.50;;;;;;;;;;4956236;28;20226;-77
2024/03/28 07:37:23;;;;;;;11.20;9.70;;;;;;;;;;4969593;28;20329;-78
2024/03/28 07:39:48;;;;;;;10.23;9.27;;;;;;;;;;4972949;28;20299;-78
2024/03/28 07:42:14;;;;;;;11.33;10.17;;;;;;;;;;4970481;28;20233;-77
2024/03/28 07:44:41;;;;;;;11.00;9.90;;;;;;;;;;4985588;28;20218;-77
2024/03/28 07:47:06;;;;;;;10.57;9.47;;;;;;;;;;4953710;28;20222;-78
2024/03/28 07:49:34;;;;;;;10.50;9.50;;;;;;;;;;4952631;28;20333;-77
2024/03/28 07:52:01;;;;;;;10.07;9.13;;;;;;;;;;4986450;28;20292;-78
2024/03/28 07:54:27;;;;;;;10.70;9.77;;;;;;;;;;4968497;28;20413;-77
2024/03/28 07:56:53;;;;;;;10.27;9.27;;;;;;;;;;4985521;28;20304;-77
2024/03/28 07:59:20;;;;;;;9.20;8.40;;;;;;;;;;4969469;28;20629;-78
2024/03/28 08:01:47;;;;;;;9.53;8.73;;;;;;;;;;4971219;28;20222;-78
2024/03/28 08:04:13;;;;;;;9.03;8.23;;;;;;;;;;4955797;28;20479;-79
2024/03/28 08:06:42;;;;;;;8.40;7.60;;;;;;;;;;4970768;28;20222;-76
2024/03/28 08:09:11;;;;;;;7.77;7.07;;;;;;;;;;4954551;28;20237;-78
2024/03/28 08:11:39;;;;;;;7.80;7.10;;;;;;;;;;4971775;28;20256;-79
2024/03/28 08:14:09;;;;;;;7.70;7.00;;;;;;;;;;4954536;28;20223;-78
2024/03/28 08:16:35;;;;;;;7.40;6.80;;;;;;;;;;4953942;28;20237;-78
2024/03/28 08:19:03;;;;;;;6.97;6.27;;;;;;;;;;4953736;28;20685;-77
2024/03/28 08:21:28;;;;;;;6.87;6.00;;;;;;;;;;4986105;28;20218;-77
2024/03/28 08:23:54;;;;;;;6.20;5.70;;;;;;;;;;4986074;28;20222;-78
2024/03/28 08:26:20;;;;;;;6.63;6.03;;;;;;;;;;4969078;28;20266;-77
2024/03/28 08:28:48;;;;;;;6.47;5.97;;;;;;;;;;4970968;28;20218;-77
2024/03/28 08:31:14;;;;;;;6.20;5.70;;;;;;;;;;4986622;28;20632;-78
2024/03/28 08:33:43;;;;;;;6.90;6.40;;;;;;;;;;4969875;28;20325;-77
2024/03/28 08:36:09;;;;;;;7.10;6.50;;;;;;;;;;4984406;28;20222;-78
2024/03/28 08:38:34;;;;;;;6.90;6.30;;;;;;;;;;4983481;28;20257;-76
2024/03/28 08:41:00;;;;;;;6.80;6.20;;;;;;;;;;4983503;28;20233;-78
2024/03/28 08:43:26;;;;;;;7.40;6.70;;;;;;;;;;4966724;28;20222;-78
2024/03/28 08:45:54;;;;;;;6.43;5.83;;;;;;;;;;4976151;28;20221;-77
2024/03/28 08:48:20;;;;;;;4.70;4.20;;;;;;;;;;4987470;28;20269;-78
2024/03/28 08:50:46;;;;;;;4.40;4.10;;;;;;;;;;4970665;28;20690;-77
2024/03/28 08:53:11;;;;;;;4.60;4.17;;;;;;;;;;4983395;28;20229;-78
2024/03/28 08:55:37;;;;;;;4.20;3.80;;;;;;;;;;4969148;28;20296;-79
2024/03/28 08:58:03;;;;;;;3.67;3.37;;;;;;;;;;4968709;28;20230;-80
2024/03/28 09:00:31;;;;;;;3.60;3.30;;;;;;;;;;4951485;28;20229;-78
2024/03/28 09:02:57;;;;;;;3.53;3.10;;;;;;;;;;4983751;28;20226;-77
2024/03/28 09:05:25;;;;;;;3.10;2.90;;;;;;;;;;4982048;28;20284;-78
2024/03/28 09:07:55;;;;;;;3.37;3.07;;;;;;;;;;4967665;28;20226;-79
2024/03/28 09:10:21;;;;;;;3.20;2.90;;;;;;;;;;4967359;28;20306;-79
2024/03/28 09:12:48;;;;;;;3.77;3.17;;;;;;;;;;4952480;28;20999;-79
2024/03/28 09:15:14;;;;;;;2.90;2.70;;;;;;;;;;4983355;28;20848;-80
2024/03/28 09:17:40;;;;;;;3.20;2.90;;;;;;;;;;4983570;28;20294;-77
2024/03/28 09:20:08;;;;;;;2.70;2.50;;;;;;;;;;4951579;28;20230;-78
2024/03/28 09:22:37;;;;;;;2.37;2.20;;;;;;;;;;4967556;28;20360;-79
2024/03/28 09:25:04;;;;;;;2.73;2.30;;;;;;;;;;4985425;28;20249;-78
2024/03/28 09:27:29;;;;;;;3.30;3.00;;;;;;;;;;4934297;28;20241;-78
2024/03/28 09:29:55;;;;;;;2.80;2.60;;;;;;;;;;4967532;28;20766;-78
2024/03/28 09:32:21;;;;;;;3.13;2.90;;;;;;;;;;4965832;28;20226;-80
2024/03/28 09:34:49;;;;;;;3.27;2.77;;;;;;;;;;4969478;28;20210;-79
2024/03/28 09:37:17;;;;;;;3.10;2.90;;;;;;;;;;4967071;28;20619;-80
2024/03/28 09:39:51;;;;;;;3.40;3.10;;;;;;;;;;4983698;28;20218;-79
2024/03/28 09:42:19;;;;;;;3.13;2.93;;;;;;;;;;4939497;28;20226;-78
2024/03/28 09:44:46;;;;;;;3.40;2.80;;;;;;;;;;4946929;28;20221;-80
2024/03/28 09:47:14;;;;;;;3.03;2.83;;;;;;;;;;5003700;28;20244;-77
2024/03/28 09:49:43;;;;;;;3.30;3.10;;;;;;;;;;5004398;28;20233;-77
2024/03/28 09:52:08;;;;;;;3.07;2.87;;;;;;;;;;5003675;28;20245;-77
2024/03/28 09:54:40;;;;;;;3.30;3.00;;;;;;;;;;5004199;28;20217;-79
2024/03/28 09:57:06;;;;;;;3.40;2.97;;;;;;;;;;5004035;28;20221;-78
2024/03/28 09:59:34;;;;;;;3.47;3.17;;;;;;;;;;4970758;28;20331;-78
2024/03/28 10:02:20;;;;;;;2.85;2.65;;;;;;;;;;4971220;28;20239;-79
2024/03/28 10:04:53;;;;;;;3.93;2.90;;;;;;;;;;4964159;28;20230;-77
2024/03/28 10:07:22;;;;;;;3.47;3.00;;;;;;;;;;5002922;28;20294;-77
2024/03/28 10:09:49;;;;;;;3.83;3.30;;;;;;;;;;5003962;28;20213;-78
2024/03/28 10:12:16;;;;;;;2.97;2.70;;;;;;;;;;4970390;28;20232;-77
2024/03/28 10:14:56;;;;;;;3.00;2.80;;;;;;;;;;4988332;28;20217;-76
2024/03/28 10:17:24;;;;;;;2.80;2.50;;;;;;;;;;4986381;28;20629;-77
2024/03/28 10:20:03;;;;;;;3.10;2.80;;;;;;;;;;4971317;28;20242;-77
2024/03/28 10:22:31;;;;;;;2.60;2.40;;;;;;;;;;4968282;28;20229;-79
2024/03/28 10:24:58;;;;;;;2.50;2.30;;;;;;;;;;5004245;28;20651;-76
2024/03/28 10:27:25;;;;;;;2.80;2.43;;;;;;;;;;4974219;28;20679;-78
2024/03/28 10:29:53;;;;;;;2.73;2.50;;;;;;;;;;5007474;28;20229;-79
2024/03/28 10:32:21;;;;;;;2.67;2.40;;;;;;;;;;4988917;28;20276;-78
2024/03/28 10:34:55;;;;;;;1.90;1.80;;;;;;;;;;4992488;28;20653;-79
2024/03/28 10:37:21;;;;;;;2.20;2.00;;;;;;;;;;5006455;28;20233;-78
2024/03/28 10:39:49;;;;;;;2.23;2.03;;;;;;;;;;5006587;28;20232;-78
2024/03/28 10:42:17;;;;;;;2.10;2.00;;;;;;;;;;5006968;28;20428;-77
2024/03/28 10:44:44;;;;;;;2.60;1.77;;;;;;;;;;4976102;28;20233;-79
2024/03/28 10:47:15;;;;;;;2.03;1.77;;;;;;;;;;5007533;28;20617;-78
2024/03/28 10:49:54;;;;;;;1.87;1.70;;;;;;;;;;5005748;28;20225;-78
2024/03/28 10:52:29;;;;;;;1.97;1.87;;;;;;;;;;5006260;28;20637;-80
2024/03/28 10:55:17;;;;;;;3.73;2.17;;;;;;;;;;4976211;28;20232;-79
2024/03/28 10:57:44;;;;;;;3.20;1.90;;;;;;;;;;5006126;28;20229;-75
2024/03/28 11:00:12;;;;;;;2.20;1.77;;;;;;;;;;4973177;28;20234;-82
2024/03/28 11:02:37;;;;;;;1.90;1.80;;;;;;;;;;4990510;28;20236;-77
2024/03/28 11:05:06;;;;;;;1.70;1.60;;;;;;;;;;4990657;28;20300;-79
2024/03/28 11:07:32;;;;;;;2.58;2.38;;;;;;;;;;4992509;28;20229;-77
2024/03/28 11:09:58;;;;;;;3.03;2.57;;;;;;;;;;4959616;28;20225;-79
2024/03/28 11:12:26;;;;;;;2.22;2.00;;;;;;;;;;4974976;28;20228;-78
2024/03/28 11:14:56;;;;;;;2.20;2.00;;;;;;;;;;5006529;28;20280;-78
2024/03/28 11:17:24;;;;;;;2.38;1.83;;;;;;;;;;5005629;28;20232;-80
2024/03/28 11:20:03;;;;;;;2.42;2.10;;;;;;;;;;4973959;28;20241;-77
2024/03/28 11:22:30;;;;;;;2.00;1.60;;;;;;;;;;4991522;28;20241;-80
2024/03/28 11:24:57;;;;;;;2.28;1.55;;;;;;;;;;5006508;28;20217;-79
2024/03/28 11:27:23;;;;;;;1.80;1.70;;;;;;;;;;5007023;28;20921;-78
2024/03/28 11:29:53;;;;;;;2.30;2.10;;;;;;;;;;5006656;28;20217;-79
2024/03/28 11:32:25;;;;;;;3.05;1.80;;;;;;;;;;5005149;28;20729;-78
2024/03/28 11:34:50;;;;;;;2.13;2.00;;;;;;;;;;5006629;28;20247;-80
2024/03/28 11:37:19;;;;;;;2.05;1.92;;;;;;;;;;4970526;28;20785;-79
2024/03/28 11:39:49;;;;;;;1.88;1.77;;;;;;;;;;4988385;28;20917;-78
2024/03/28 11:42:16;;;;;;;1.88;1.70;;;;;;;;;;5004269;28;20340;-77
2024/03/28 11:44:41;;;;;;;2.20;1.65;;;;;;;;;;4972467;28;20678;-79
2024/03/28 11:47:08;;;;;;;2.20;2.00;;;;;;;;;;5006435;28;20240;-79
2024/03/28 11:49:36;;;;;;;3.10;2.22;;;;;;;;;;4988423;28;20295;-78
2024/03/28 11:52:04;;;;;;;1.92;1.83;;;;;;;;;;4973176;28;21189;-79
2024/03/28 11:54:32;;;;;;;2.85;2.10;;;;;;;;;;4988540;28;20248;-78
2024/03/28 11:57:01;;;;;;;2.58;2.10;;;;;;;;;;4987347;28;20264;-78
2024/03/28 11:59:26;;;;;;;2.30;2.10;;;;;;;;;;5003314;28;20233;-78
2024/03/28 12:02:01;;;;;;;2.42;2.22;;;;;;;;;;4981544;28;20217;-78
2024/03/28 12:04:26;;;;;;;2.35;2.15;;;;;;;;;;4980769;28;20698;-79
2024/03/28 12:06:54;;;;;;;2.30;2.10;;;;;;;;;;5007902;28;20232;-79
2024/03/28 12:09:20;;;;;;;2.30;2.10;;;;;;;;;;4989318;28;20221;-80
2024/03/28 12:11:50;;;;;;;2.88;2.45;;;;;;;;;;4989050;28;20217;-78
2024/03/28 12:14:19;;;;;;;2.35;2.15;;;;;;;;;;4968204;28;20309;-78
2024/03/28 12:16:46;;;;;;;2.63;2.42;;;;;;;;;;4990312;28;20255;-80
2024/03/28 12:19:23;;;;;;;2.38;2.13;;;;;;;;;;4988502;28;20776;-79
2024/03/28 12:21:50;;;;;;;2.55;2.35;;;;;;;;;;4974960;28;20220;-79
2024/03/28 12:24:16;;;;;;;2.10;1.90;;;;;;;;;;4973093;28;20281;-81
2024/03/28 12:26:44;;;;;;;2.17;1.98;;;;;;;;;;4990185;28;20443;-79
2024/03/28 12:29:09;;;;;;;2.10;2.00;;;;;;;;;;5005726;28;20235;-79
2024/03/28 12:31:35;;;;;;;2.42;2.17;;;;;;;;;;4973649;28;20220;-78
2024/03/28 12:34:15;;;;;;;2.30;2.10;;;;;;;;;;5007513;28;20225;-80
2024/03/28 12:36:40;;;;;;;2.30;2.10;;;;;;;;;;4987835;28;20232;-78
2024/03/28 12:39:11;;;;;;;1.80;1.70;;;;;;;;;;4988296;28;20554;-76
2024/03/28 12:41:41;;;;;;;2.30;2.10;;;;;;;;;;4971803;28;20309;-79
2024/03/28 12:44:07;;;;;;;2.63;2.00;;;;;;;;;;4955852;28;20229;-80
2024/03/28 12:46:42;;;;;;;2.40;2.20;;;;;;;;;;5003525;28;20825;-79
2024/03/28 12:49:08;;;;;;;4.13;2.33;;;;;;;;;;5002246;28;20940;-79
2024/03/28 12:51:33;;;;;;;2.40;2.20;;;;;;;;;;4973740;28;20244;-78
2024/03/28 12:53:59;;;;;;;1.63;1.53;;;;;;;;;;4989536;28;20225;-78
2024/03/28 12:56:24;;;;;;;1.20;1.03;;;;;;;;;;5005181;28;20252;-78
2024/03/28 12:58:50;;;;;;;1.23;1.00;;;;;;;;;;4989089;28;20229;-79
2024/03/28 13:01:15;;;;;;;1.17;1.00;;;;;;;;;;4971842;28;20240;-77
2024/03/28 13:03:41;;;;;;;1.30;1.00;;;;;;;;;;4972324;28;20224;-78
2024/03/28 13:06:09;;;;;;;1.23;1.03;;;;;;;;;;4989352;28;20229;-77
2024/03/28 13:08:35;;;;;;;0.80;0.80;;;;;;;;;;4974445;28;20232;-78
2024/03/28 13:11:01;;;;;;;1.60;1.30;;;;;;;;;;4972739;28;21104;-77
2024/03/28 13:13:26;;;;;;;1.50;1.37;;;;;;;;;;4987171;28;20221;-78
2024/03/28 13:15:52;;;;;;;1.70;1.60;;;;;;;;;;4987549;28;20283;-78
2024/03/28 13:18:17;;;;;;;1.03;0.97;;;;;;;;;;4986964;28;20221;-78
2024/03/28 13:20:45;;;;;;;2.93;1.00;;;;;;;;;;4971687;28;21414;-77
2024/03/28 13:23:10;;;;;;;1.10;0.90;;;;;;;;;;4985822;28;20670;-78
2024/03/28 13:25:36;;;;;;;0.73;0.73;;;;;;;;;;4985943;28;20221;-77
2024/03/28 13:28:04;;;;;;;1.20;1.10;;;;;;;;;;5002920;28;20793;-76
2024/03/28 13:30:29;;;;;;;1.20;1.10;;;;;;;;;;4986913;28;20241;-78
2024/03/28 13:32:55;;;;;;;1.27;1.00;;;;;;;;;;5002239;28;20229;-79
2024/03/28 13:35:20;;;;;;;1.00;1.00;;;;;;;;;;5003193;28;20225;-77
2024/03/28 13:37:46;;;;;;;1.27;0.80;;;;;;;;;;4973993;28;20229;-75
2024/03/28 13:40:11;;;;;;;1.17;1.00;;;;;;;;;;4986121;28;20264;-76
2024/03/28 13:42:37;;;;;;;1.00;1.00;;;;;;;;;;4988387;28;20232;-78
2024/03/28 13:45:03;;;;;;;0.97;0.93;;;;;;;;;;4970526;28;20225;-77
2024/03/28 13:47:28;;;;;;;0.80;0.80;;;;;;;;;;4971009;28;20585;-77
2024/03/28 13:49:56;;;;;;;0.80;0.80;;;;;;;;;;4971391;28;20251;-78
2024/03/28 13:52:23;;;;;;;0.60;0.60;;;;;;;;;;4986292;28;20279;-77
2024/03/28 13:54:49;;;;;;;0.93;0.60;;;;;;;;;;5003228;28;20228;-78
2024/03/28 13:57:14;;;;;;;0.63;0.63;;;;;;;;;;4970106;28;20505;-78
2024/03/28 13:59:45;;;;;;;0.50;0.50;;;;;;;;;;4986104;28;20237;-78
2024/03/28 14:02:12;;;;;;;0.60;0.60;;;;;;;;;;5006513;28;20225;-77
2024/03/28 14:04:38;;;;;;;1.40;1.30;;;;;;;;;;4991080;28;20226;-77
2024/03/28 14:07:06;;;;;;;0.70;0.70;;;;;;;;;;5005761;28;20225;-78
2024/03/28 14:09:31;;;;;;;0.80;0.80;;;;;;;;;;4974318;28;20229;-77
2024/03/28 14:11:57;;;;;;;0.70;0.70;;;;;;;;;;4990145;28;20237;-78
2024/03/28 14:14:26;;;;;;;0.70;0.70;;;;;;;;;;5005014;28;20225;-77
2024/03/28 14:16:53;;;;;;;0.97;0.87;;;;;;;;;;4991136;28;20285;-77
2024/03/28 14:19:22;;;;;;;2.37;1.00;;;;;;;;;;5006581;28;20781;-78
2024/03/28 14:21:50;;;;;;;0.77;0.77;;;;;;;;;;4991891;28;20250;-78
2024/03/28 14:24:15;;;;;;;0.80;0.80;;;;;;;;;;4991877;28;20699;-77
2024/03/28 14:26:41;;;;;;;0.90;0.90;;;;;;;;;;4988022;28;20259;-75
2024/03/28 14:29:06;;;;;;;0.83;0.80;;;;;;;;;;4973376;28;20231;-77
2024/03/28 14:31:34;;;;;;;1.73;1.63;;;;;;;;;;4973526;28;20229;-78
2024/03/28 14:34:01;;;;;;;1.20;1.10;;;;;;;;;;4989878;28;20717;-77
2024/03/28 14:36:26;;;;;;;3.63;3.23;;;;;;;;;;4989905;28;20229;-76
2024/03/28 14:38:52;;;;;;;1.00;0.90;;;;;;;;;;4972832;28;20222;-77
2024/03/28 14:41:19;;;;;;;0.80;0.80;;;;;;;;;;4989432;28;20686;-76
2024/03/28 14:43:45;;;;;;;1.67;1.00;;;;;;;;;;5001643;28;20272;-77